sensor_id;sensor_type;location;lat;lon;timestamp;pressure;altitude;pressure_sealevel;temperature;humidity
9672;BME280;4874;43.568;27.824;2022-12-07T00:03:41;99144.22;;;8.44;100.00
9672;BME280;4874;43.568;27.824;2022-12-07T00:06:09;99126.25;;;8.27;100.00
9672;BME280;4874;43.568;27.824;2022-12-07T00:08:37;99108.28;;;7.99;100.00
9672;BME280;4874;43.568;27.824;2022-12-07T00:11:06;99151.50;;;8.20;100.00
9672;BME280;4874;43.568;27.824;2022-12-07T00:13:34;99110.16;;;8.19;100.00
9672;BME280;4874;43.568;27.824;2022-12-07T00:16:07;99155.19;;;8.40;100.00
9672;BME280;4874;43.568;27.824;2022-12-07T00:18:34;99109.34;;;8.07;100.00
9672;BME280;4874;43.568;27.824;2022-12-07T00:21:11;99150.06;;;8.27;100.00
9672;BME280;4874;43.568;27.824;2022-12-07T00:23:39;99147.88;;;8.21;100.00
9672;BME280;4874;43.568;27.824;2022-12-07T00:26:10;99143.56;;;8.20;100.00
9672;BME280;4874;43.568;27.824;2022-12-07T00:28:38;99149.13;;;8.06;100.00
9672;BME280;4874;43.568;27.824;2022-12-07T00:31:08;99140.19;;;8.18;100.00
9672;BME280;4874;43.568;27.824;2022-12-07T00:33:36;99128.06;;;8.15;100.00
9672;BME280;4874;43.568;27.824;2022-12-07T00:36:05;99132.72;;;8.23;100.00
9672;BME280;4874;43.568;27.824;2022-12-07T00:38:34;99131.66;;;8.14;100.00
9672;BME280;4874;43.568;27.824;2022-12-07T00:41:07;99100.19;;;7.80;100.00
9672;BME280;4874;43.568;27.824;2022-12-07T00:43:34;99134.25;;;7.94;100.00
9672;BME280;4874;43.568;27.824;2022-12-07T00:46:01;99128.16;;;7.93;100.00
9672;BME280;4874;43.568;27.824;2022-12-07T00:48:28;99128.03;;;7.95;100.00
9672;BME280;4874;43.568;27.824;2022-12-07T00:50:55;99124.03;;;8.00;100.00
9672;BME280;4874;43.568;27.824;2022-12-07T00:53:22;99128.63;;;7.98;100.00
9672;BME280;4874;43.568;27.824;2022-12-07T00:55:49;99142.16;;;8.05;100.00
9672;BME280;4874;43.568;27.824;2022-12-07T00:58:16;99127.75;;;7.98;100.00
9672;BME280;4874;43.568;27.824;2022-12-07T01:00:42;99123.81;;;7.92;100.00
9672;BME280;4874;43.568;27.824;2022-12-07T01:03:12;99116.13;;;7.89;100.00
9672;BME280;4874;43.568;27.824;2022-12-07T01:05:39;99115.75;;;7.94;100.00
9672;BME280;4874;43.568;27.824;2022-12-07T01:08:06;99116.34;;;7.97;100.00
9672;BME280;4874;43.568;27.824;2022-12-07T01:10:33;99114.09;;;7.93;100.00
9672;BME280;4874;43.568;27.824;2022-12-07T01:12:59;99109.53;;;7.95;100.00
9672;BME280;4874;43.568;27.824;2022-12-07T01:15:26;99082.25;;;7.83;100.00
9672;BME280;4874;43.568;27.824;2022-12-07T01:17:53;99100.13;;;8.02;100.00
9672;BME280;4874;43.568;27.824;2022-12-07T01:20:21;99049.16;;;7.68;100.00
9672;BME280;4874;43.568;27.824;2022-12-07T01:22:48;99088.97;;;7.98;100.00
9672;BME280;4874;43.568;27.824;2022-12-07T01:25:15;99048.41;;;7.88;100.00
9672;BME280;4874;43.568;27.824;2022-12-07T01:27:41;99059.56;;;7.81;100.00
9672;BME280;4874;43.568;27.824;2022-12-07T01:30:10;99103.84;;;7.99;100.00
9672;BME280;4874;43.568;27.824;2022-12-07T01:32:37;99086.66;;;7.94;100.00
9672;BME280;4874;43.568;27.824;2022-12-07T01:35:04;99083.22;;;7.93;100.00
9672;BME280;4874;43.568;27.824;2022-12-07T01:37:35;99072.66;;;7.93;100.00
9672;BME280;4874;43.568;27.824;2022-12-07T01:40:04;99084.25;;;8.02;100.00
9672;BME280;4874;43.568;27.824;2022-12-07T01:42:31;98996.72;;;7.53;100.00
9672;BME280;4874;43.568;27.824;2022-12-07T01:47:55;99072.50;;;7.95;100.00
9672;BME280;4874;43.568;27.824;2022-12-07T01:50:25;99071.06;;;8.02;100.00
9672;BME280;4874;43.568;27.824;2022-12-07T01:52:55;99076.09;;;7.94;100.00
9672;BME280;4874;43.568;27.824;2022-12-07T01:55:23;99079.59;;;7.94;100.00
9672;BME280;4874;43.568;27.824;2022-12-07T01:57:52;99094.00;;;7.90;100.00
9672;BME280;4874;43.568;27.824;2022-12-07T02:00:20;99089.84;;;7.77;100.00
9672;BME280;4874;43.568;27.824;2022-12-07T02:03:11;99074.59;;;7.80;100.00
9672;BME280;4874;43.568;27.824;2022-12-07T02:05:37;99072.13;;;7.68;100.00
9672;BME280;4874;43.568;27.824;2022-12-07T02:08:04;99087.97;;;7.57;100.00
9672;BME280;4874;43.568;27.824;2022-12-07T02:10:32;99071.41;;;7.66;100.00
9672;BME280;4874;43.568;27.824;2022-12-07T02:13:08;99073.78;;;7.58;100.00
9672;BME280;4874;43.568;27.824;2022-12-07T02:18:22;99065.34;;;7.75;100.00
9672;BME280;4874;43.568;27.824;2022-12-07T02:21:08;99085.53;;;7.76;100.00
9672;BME280;4874;43.568;27.824;2022-12-07T02:32:08;99078.47;;;7.76;100.00
9672;BME280;4874;43.568;27.824;2022-12-07T02:34:48;99050.66;;;7.50;100.00
9672;BME280;4874;43.568;27.824;2022-12-07T02:37:25;99057.00;;;7.48;100.00
9672;BME280;4874;43.568;27.824;2022-12-07T02:40:21;99066.97;;;7.55;100.00
9672;BME280;4874;43.568;27.824;2022-12-07T02:42:58;99062.16;;;7.60;100.00
9672;BME280;4874;43.568;27.824;2022-12-07T02:45:27;99061.22;;;7.50;100.00
9672;BME280;4874;43.568;27.824;2022-12-07T02:47:58;99061.47;;;7.47;100.00
9672;BME280;4874;43.568;27.824;2022-12-07T02:50:26;99010.63;;;7.23;100.00
9672;BME280;4874;43.568;27.824;2022-12-07T02:52:54;99060.59;;;7.58;100.00
9672;BME280;4874;43.568;27.824;2022-12-07T02:55:26;99057.72;;;7.61;100.00
9672;BME280;4874;43.568;27.824;2022-12-07T02:58:20;99055.28;;;7.69;100.00
9672;BME280;4874;43.568;27.824;2022-12-07T03:01:15;99050.06;;;7.78;100.00
9672;BME280;4874;43.568;27.824;2022-12-07T03:03:58;99047.34;;;7.80;100.00
9672;BME280;4874;43.568;27.824;2022-12-07T03:06:31;99047.81;;;7.85;100.00
9672;BME280;4874;43.568;27.824;2022-12-07T03:09:13;99044.25;;;7.95;100.00
9672;BME280;4874;43.568;27.824;2022-12-07T03:11:57;99056.38;;;8.09;100.00
9672;BME280;4874;43.568;27.824;2022-12-07T03:14:38;99049.97;;;8.11;100.00
9672;BME280;4874;43.568;27.824;2022-12-07T03:17:13;99060.41;;;8.13;100.00
9672;BME280;4874;43.568;27.824;2022-12-07T03:19:43;99051.75;;;8.11;100.00
9672;BME280;4874;43.568;27.824;2022-12-07T03:22:12;99042.88;;;8.12;100.00
9672;BME280;4874;43.568;27.824;2022-12-07T03:24:50;99045.84;;;8.18;100.00
9672;BME280;4874;43.568;27.824;2022-12-07T03:27:22;99049.22;;;8.20;100.00
9672;BME280;4874;43.568;27.824;2022-12-07T03:29:54;99047.91;;;8.15;100.00
9672;BME280;4874;43.568;27.824;2022-12-07T03:32:34;99044.75;;;8.21;100.00
9672;BME280;4874;43.568;27.824;2022-12-07T03:35:07;99044.28;;;8.27;100.00
9672;BME280;4874;43.568;27.824;2022-12-07T03:37:47;99037.53;;;8.23;100.00
9672;BME280;4874;43.568;27.824;2022-12-07T03:42:42;99046.25;;;8.14;100.00
9672;BME280;4874;43.568;27.824;2022-12-07T03:45:09;99044.34;;;8.05;100.00
9672;BME280;4874;43.568;27.824;2022-12-07T03:47:51;99048.53;;;8.07;100.00
9672;BME280;4874;43.568;27.824;2022-12-07T03:53:01;99047.00;;;8.05;100.00
9672;BME280;4874;43.568;27.824;2022-12-07T03:55:33;99038.75;;;7.98;100.00
9672;BME280;4874;43.568;27.824;2022-12-07T03:58:06;99049.34;;;8.19;100.00
9672;BME280;4874;43.568;27.824;2022-12-07T04:00:34;99045.72;;;8.20;100.00
9672;BME280;4874;43.568;27.824;2022-12-07T04:03:01;99035.91;;;8.11;100.00
9672;BME280;4874;43.568;27.824;2022-12-07T04:05:28;99042.88;;;8.12;100.00
9672;BME280;4874;43.568;27.824;2022-12-07T04:07:54;99037.06;;;8.18;100.00
9672;BME280;4874;43.568;27.824;2022-12-07T04:10:21;99041.19;;;8.11;100.00
9672;BME280;4874;43.568;27.824;2022-12-07T04:12:48;99041.06;;;8.23;100.00
9672;BME280;4874;43.568;27.824;2022-12-07T04:15:15;99036.81;;;8.21;100.00
9672;BME280;4874;43.568;27.824;2022-12-07T04:17:41;99035.31;;;8.39;100.00
9672;BME280;4874;43.568;27.824;2022-12-07T04:20:08;99024.09;;;8.26;100.00
9672;BME280;4874;43.568;27.824;2022-12-07T04:22:35;99033.59;;;8.17;100.00
9672;BME280;4874;43.568;27.824;2022-12-07T04:25:02;99036.94;;;8.19;100.00
9672;BME280;4874;43.568;27.824;2022-12-07T04:27:29;99033.69;;;8.27;100.00
9672;BME280;4874;43.568;27.824;2022-12-07T04:29:56;99039.75;;;8.39;100.00
9672;BME280;4874;43.568;27.824;2022-12-07T04:32:23;99040.88;;;8.36;100.00
9672;BME280;4874;43.568;27.824;2022-12-07T04:34:50;99034.03;;;8.33;100.00
9672;BME280;4874;43.568;27.824;2022-12-07T04:37:21;99032.84;;;8.26;100.00
9672;BME280;4874;43.568;27.824;2022-12-07T04:39:47;98990.56;;;7.95;100.00
9672;BME280;4874;43.568;27.824;2022-12-07T04:42:14;99031.28;;;8.03;100.00
9672;BME280;4874;43.568;27.824;2022-12-07T04:44:41;99043.88;;;8.31;100.00
9672;BME280;4874;43.568;27.824;2022-12-07T04:47:07;99048.34;;;8.31;100.00
9672;BME280;4874;43.568;27.824;2022-12-07T04:49:34;99049.53;;;8.38;100.00
9672;BME280;4874;43.568;27.824;2022-12-07T04:52:01;99057.28;;;8.19;100.00
9672;BME280;4874;43.568;27.824;2022-12-07T04:54:27;98999.38;;;7.84;100.00
9672;BME280;4874;43.568;27.824;2022-12-07T04:56:54;99055.13;;;8.24;100.00
9672;BME280;4874;43.568;27.824;2022-12-07T04:59:20;99045.41;;;8.13;100.00
9672;BME280;4874;43.568;27.824;2022-12-07T05:01:47;99045.06;;;8.07;100.00
9672;BME280;4874;43.568;27.824;2022-12-07T05:04:14;99045.56;;;8.01;100.00
9672;BME280;4874;43.568;27.824;2022-12-07T05:06:42;99055.81;;;7.83;100.00
9672;BME280;4874;43.568;27.824;2022-12-07T05:09:09;99040.63;;;7.76;100.00
9672;BME280;4874;43.568;27.824;2022-12-07T05:11:35;99062.88;;;7.94;100.00
9672;BME280;4874;43.568;27.824;2022-12-07T05:14:19;99039.16;;;7.83;100.00
9672;BME280;4874;43.568;27.824;2022-12-07T05:16:49;99052.19;;;7.95;100.00
9672;BME280;4874;43.568;27.824;2022-12-07T05:19:18;99055.22;;;7.91;100.00
9672;BME280;4874;43.568;27.824;2022-12-07T05:21:45;99050.44;;;7.85;100.00
9672;BME280;4874;43.568;27.824;2022-12-07T05:24:14;99041.78;;;7.83;100.00
9672;BME280;4874;43.568;27.824;2022-12-07T05:26:41;99047.81;;;7.85;100.00
9672;BME280;4874;43.568;27.824;2022-12-07T05:29:11;99040.34;;;7.90;100.00
9672;BME280;4874;43.568;27.824;2022-12-07T05:31:38;99038.50;;;7.90;100.00
9672;BME280;4874;43.568;27.824;2022-12-07T05:34:05;99032.75;;;7.85;100.00
9672;BME280;4874;43.568;27.824;2022-12-07T05:36:31;99036.66;;;7.70;100.00
9672;BME280;4874;43.568;27.824;2022-12-07T05:38:59;99040.59;;;8.07;100.00
9672;BME280;4874;43.568;27.824;2022-12-07T05:41:26;99044.09;;;7.76;100.00
9672;BME280;4874;43.568;27.824;2022-12-07T05:44:11;99048.72;;;7.95;100.00
9672;BME280;4874;43.568;27.824;2022-12-07T05:46:38;99053.00;;;8.07;100.00
9672;BME280;4874;43.568;27.824;2022-12-07T05:49:04;99044.84;;;7.99;100.00
9672;BME280;4874;43.568;27.824;2022-12-07T05:51:31;99047.25;;;8.02;100.00
9672;BME280;4874;43.568;27.824;2022-12-07T05:53:58;99043.47;;;7.84;100.00
9672;BME280;4874;43.568;27.824;2022-12-07T05:56:25;99045.81;;;7.98;100.00
9672;BME280;4874;43.568;27.824;2022-12-07T05:58:53;99019.81;;;8.14;100.00
9672;BME280;4874;43.568;27.824;2022-12-07T06:01:38;99055.75;;;8.37;100.00
9672;BME280;4874;43.568;27.824;2022-12-07T06:04:06;99050.75;;;8.23;100.00
9672;BME280;4874;43.568;27.824;2022-12-07T06:06:33;99059.44;;;8.46;100.00
9672;BME280;4874;43.568;27.824;2022-12-07T06:08:59;99061.91;;;8.58;100.00
9672;BME280;4874;43.568;27.824;2022-12-07T06:11:26;99056.13;;;8.01;100.00
9672;BME280;4874;43.568;27.824;2022-12-07T06:14:11;99069.97;;;8.57;100.00
9672;BME280;4874;43.568;27.824;2022-12-07T06:16:38;99067.44;;;8.76;100.00
9672;BME280;4874;43.568;27.824;2022-12-07T06:19:04;99064.03;;;8.64;100.00
9672;BME280;4874;43.568;27.824;2022-12-07T06:21:31;99060.44;;;8.95;100.00
9672;BME280;4874;43.568;27.824;2022-12-07T06:23:58;99067.53;;;8.95;100.00
9672;BME280;4874;43.568;27.824;2022-12-07T06:26:25;99059.28;;;8.88;100.00
9672;BME280;4874;43.568;27.824;2022-12-07T06:28:51;99063.97;;;9.05;100.00
9672;BME280;4874;43.568;27.824;2022-12-07T06:31:18;99057.72;;;9.06;100.00
9672;BME280;4874;43.568;27.824;2022-12-07T06:33:45;99068.84;;;8.80;100.00
9672;BME280;4874;43.568;27.824;2022-12-07T06:36:11;99069.44;;;8.42;100.00
9672;BME280;4874;43.568;27.824;2022-12-07T06:38:38;99068.13;;;8.78;100.00
9672;BME280;4874;43.568;27.824;2022-12-07T06:41:05;99059.59;;;8.95;100.00
9672;BME280;4874;43.568;27.824;2022-12-07T06:43:32;99058.28;;;8.59;100.00
9672;BME280;4874;43.568;27.824;2022-12-07T06:45:59;99057.72;;;9.06;100.00
9672;BME280;4874;43.568;27.824;2022-12-07T06:48:26;99054.94;;;9.08;100.00
9672;BME280;4874;43.568;27.824;2022-12-07T06:50:53;99063.66;;;8.99;100.00
9672;BME280;4874;43.568;27.824;2022-12-07T06:53:21;99055.75;;;8.78;100.00
9672;BME280;4874;43.568;27.824;2022-12-07T06:55:48;99036.72;;;9.24;100.00
9672;BME280;4874;43.568;27.824;2022-12-07T06:58:14;99045.63;;;9.63;100.00
9672;BME280;4874;43.568;27.824;2022-12-07T07:00:41;99046.13;;;9.37;100.00
9672;BME280;4874;43.568;27.824;2022-12-07T07:03:08;99057.81;;;9.94;100.00
9672;BME280;4874;43.568;27.824;2022-12-07T07:05:35;99053.25;;;10.24;100.00
9672;BME280;4874;43.568;27.824;2022-12-07T07:08:01;99051.72;;;10.31;100.00
9672;BME280;4874;43.568;27.824;2022-12-07T07:10:49;99064.94;;;10.60;100.00
9672;BME280;4874;43.568;27.824;2022-12-07T07:13:16;99056.59;;;10.45;100.00
9672;BME280;4874;43.568;27.824;2022-12-07T07:15:42;99053.50;;;10.50;100.00
9672;BME280;4874;43.568;27.824;2022-12-07T07:18:09;99064.44;;;10.28;100.00
9672;BME280;4874;43.568;27.824;2022-12-07T07:20:37;99064.50;;;10.64;100.00
9672;BME280;4874;43.568;27.824;2022-12-07T07:23:04;99057.59;;;11.00;100.00
9672;BME280;4874;43.568;27.824;2022-12-07T07:25:30;99060.09;;;11.38;100.00
9672;BME280;4874;43.568;27.824;2022-12-07T07:27:57;99053.78;;;11.12;100.00
9672;BME280;4874;43.568;27.824;2022-12-07T07:30:26;99064.03;;;11.34;100.00
9672;BME280;4874;43.568;27.824;2022-12-07T07:33:00;99055.53;;;11.31;100.00
9672;BME280;4874;43.568;27.824;2022-12-07T07:35:28;99056.22;;;11.87;100.00
9672;BME280;4874;43.568;27.824;2022-12-07T07:37:55;99044.59;;;11.34;100.00
9672;BME280;4874;43.568;27.824;2022-12-07T07:40:23;99054.44;;;11.51;100.00
9672;BME280;4874;43.568;27.824;2022-12-07T07:42:53;99055.06;;;10.99;100.00
9672;BME280;4874;43.568;27.824;2022-12-07T07:45:22;99051.09;;;11.49;100.00
9672;BME280;4874;43.568;27.824;2022-12-07T07:47:49;99016.06;;;10.99;100.00
9672;BME280;4874;43.568;27.824;2022-12-07T07:50:16;99052.72;;;10.96;100.00
9672;BME280;4874;43.568;27.824;2022-12-07T07:52:43;99061.41;;;11.25;100.00
9672;BME280;4874;43.568;27.824;2022-12-07T07:55:10;99044.94;;;10.75;100.00
9672;BME280;4874;43.568;27.824;2022-12-07T07:57:37;99055.03;;;10.62;100.00
9672;BME280;4874;43.568;27.824;2022-12-07T08:00:07;99055.91;;;10.99;100.00
9672;BME280;4874;43.568;27.824;2022-12-07T08:02:34;99055.84;;;11.18;100.00
9672;BME280;4874;43.568;27.824;2022-12-07T08:05:01;99050.59;;;11.09;100.00
9672;BME280;4874;43.568;27.824;2022-12-07T08:07:28;99053.66;;;11.04;100.00
9672;BME280;4874;43.568;27.824;2022-12-07T08:09:55;99051.25;;;11.11;100.00
9672;BME280;4874;43.568;27.824;2022-12-07T08:12:21;99055.34;;;11.05;100.00
9672;BME280;4874;43.568;27.824;2022-12-07T08:14:48;99036.56;;;10.70;100.00
9672;BME280;4874;43.568;27.824;2022-12-07T08:17:15;99058.75;;;10.88;100.00
9672;BME280;4874;43.568;27.824;2022-12-07T08:19:42;99071.63;;;10.74;100.00
9672;BME280;4874;43.568;27.824;2022-12-07T08:22:08;99070.56;;;10.57;100.00
9672;BME280;4874;43.568;27.824;2022-12-07T08:24:36;99055.75;;;10.35;100.00
9672;BME280;4874;43.568;27.824;2022-12-07T08:27:03;99072.88;;;10.69;100.00
9672;BME280;4874;43.568;27.824;2022-12-07T08:29:29;99073.91;;;10.49;100.00
9672;BME280;4874;43.568;27.824;2022-12-07T08:31:56;99067.06;;;10.37;100.00
9672;BME280;4874;43.568;27.824;2022-12-07T08:34:23;99018.63;;;10.26;100.00
9672;BME280;4874;43.568;27.824;2022-12-07T08:36:49;99057.44;;;10.55;100.00
9672;BME280;4874;43.568;27.824;2022-12-07T08:39:16;99075.19;;;10.45;100.00
9672;BME280;4874;43.568;27.824;2022-12-07T08:41:58;99043.75;;;10.22;100.00
9672;BME280;4874;43.568;27.824;2022-12-07T08:44:25;99076.00;;;10.46;100.00
9672;BME280;4874;43.568;27.824;2022-12-07T08:46:59;99056.06;;;10.23;100.00
9672;BME280;4874;43.568;27.824;2022-12-07T08:49:33;99011.09;;;10.12;100.00
9672;BME280;4874;43.568;27.824;2022-12-07T08:52:04;99058.00;;;10.21;100.00
9672;BME280;4874;43.568;27.824;2022-12-07T08:54:34;99052.69;;;10.21;100.00
9672;BME280;4874;43.568;27.824;2022-12-07T08:57:01;99024.19;;;10.13;100.00
9672;BME280;4874;43.568;27.824;2022-12-07T08:59:28;99047.38;;;10.30;100.00
9672;BME280;4874;43.568;27.824;2022-12-07T09:01:55;99052.69;;;10.30;100.00
9672;BME280;4874;43.568;27.824;2022-12-07T09:04:22;99047.09;;;10.43;100.00
9672;BME280;4874;43.568;27.824;2022-12-07T09:06:49;99044.72;;;10.30;100.00
9672;BME280;4874;43.568;27.824;2022-12-07T09:09:15;99053.41;;;10.42;100.00
9672;BME280;4874;43.568;27.824;2022-12-07T09:11:42;99050.16;;;10.48;100.00
9672;BME280;4874;43.568;27.824;2022-12-07T09:14:11;99046.38;;;10.60;100.00
9672;BME280;4874;43.568;27.824;2022-12-07T09:16:39;99036.03;;;10.57;100.00
9672;BME280;4874;43.568;27.824;2022-12-07T09:19:06;99034.31;;;10.75;100.00
9672;BME280;4874;43.568;27.824;2022-12-07T09:21:33;99029.44;;;10.71;100.00
9672;BME280;4874;43.568;27.824;2022-12-07T09:24:00;99034.78;;;10.51;100.00
9672;BME280;4874;43.568;27.824;2022-12-07T09:26:27;99022.03;;;10.74;100.00
9672;BME280;4874;43.568;27.824;2022-12-07T09:28:54;99014.00;;;10.93;100.00
9672;BME280;4874;43.568;27.824;2022-12-07T09:31:20;99015.09;;;11.00;100.00
9672;BME280;4874;43.568;27.824;2022-12-07T09:33:56;99012.53;;;11.08;100.00
9672;BME280;4874;43.568;27.824;2022-12-07T09:36:25;99006.00;;;11.30;100.00
9672;BME280;4874;43.568;27.824;2022-12-07T09:38:52;99004.66;;;10.89;100.00
9672;BME280;4874;43.568;27.824;2022-12-07T09:41:19;99011.38;;;11.20;100.00
9672;BME280;4874;43.568;27.824;2022-12-07T09:43:46;99003.31;;;11.12;100.00
9672;BME280;4874;43.568;27.824;2022-12-07T09:46:15;99002.50;;;11.02;100.00
9672;BME280;4874;43.568;27.824;2022-12-07T09:48:44;99010.78;;;11.26;100.00
9672;BME280;4874;43.568;27.824;2022-12-07T09:51:20;99008.22;;;11.34;100.00
9672;BME280;4874;43.568;27.824;2022-12-07T09:53:51;99002.91;;;11.34;100.00
9672;BME280;4874;43.568;27.824;2022-12-07T09:56:19;98997.94;;;11.22;100.00
9672;BME280;4874;43.568;27.824;2022-12-07T09:58:46;98958.16;;;11.12;100.00
9672;BME280;4874;43.568;27.824;2022-12-07T10:01:16;98984.88;;;11.28;100.00
9672;BME280;4874;43.568;27.824;2022-12-07T10:06:43;98986.13;;;11.34;100.00
9672;BME280;4874;43.568;27.824;2022-12-07T10:09:11;98954.59;;;11.21;100.00
9672;BME280;4874;43.568;27.824;2022-12-07T10:14:32;98967.06;;;11.38;100.00
9672;BME280;4874;43.568;27.824;2022-12-07T10:17:36;98968.84;;;11.20;100.00
9672;BME280;4874;43.568;27.824;2022-12-07T10:20:26;98954.03;;;11.18;100.00
9672;BME280;4874;43.568;27.824;2022-12-07T10:25:33;98953.47;;;11.24;100.00
9672;BME280;4874;43.568;27.824;2022-12-07T10:28:16;98963.84;;;11.17;100.00
9672;BME280;4874;43.568;27.824;2022-12-07T10:33:36;98952.44;;;11.07;100.00
9672;BME280;4874;43.568;27.824;2022-12-07T10:38:44;98936.75;;;11.14;100.00
9672;BME280;4874;43.568;27.824;2022-12-07T10:41:11;98941.41;;;11.29;100.00
9672;BME280;4874;43.568;27.824;2022-12-07T10:43:47;98941.94;;;11.33;100.00
9672;BME280;4874;43.568;27.824;2022-12-07T10:49:38;98933.69;;;11.71;100.00
9672;BME280;4874;43.568;27.824;2022-12-07T10:52:14;98928.75;;;11.76;100.00
9672;BME280;4874;43.568;27.824;2022-12-07T11:00:46;98913.59;;;11.86;100.00
9672;BME280;4874;43.568;27.824;2022-12-07T11:06:57;98912.03;;;12.01;100.00
9672;BME280;4874;43.568;27.824;2022-12-07T11:37:47;98900.31;;;12.12;100.00
9672;BME280;4874;43.568;27.824;2022-12-07T11:40:33;98900.31;;;12.12;100.00
9672;BME280;4874;43.568;27.824;2022-12-07T11:43:21;98898.97;;;11.90;100.00
9672;BME280;4874;43.568;27.824;2022-12-07T11:46:07;98892.31;;;11.86;100.00
9672;BME280;4874;43.568;27.824;2022-12-07T11:48:41;98904.44;;;11.89;100.00
9672;BME280;4874;43.568;27.824;2022-12-07T11:51:12;98901.19;;;11.77;100.00
9672;BME280;4874;43.568;27.824;2022-12-07T11:56:15;98883.91;;;11.99;100.00
9672;BME280;4874;43.568;27.824;2022-12-07T12:03:49;98853.56;;;11.66;100.00
9672;BME280;4874;43.568;27.824;2022-12-07T12:06:19;98874.13;;;11.81;100.00
9672;BME280;4874;43.568;27.824;2022-12-07T12:08:56;98881.16;;;11.65;100.00
9672;BME280;4874;43.568;27.824;2022-12-07T12:15:27;98878.31;;;11.84;100.00
9672;BME280;4874;43.568;27.824;2022-12-07T12:20:56;98807.47;;;11.22;100.00
9672;BME280;4874;43.568;27.824;2022-12-07T12:23:35;98866.22;;;11.54;100.00
9672;BME280;4874;43.568;27.824;2022-12-07T12:26:05;98847.47;;;11.56;100.00
9672;BME280;4874;43.568;27.824;2022-12-07T12:28:40;98859.34;;;11.79;100.00
9672;BME280;4874;43.568;27.824;2022-12-07T12:33:59;98866.84;;;11.83;100.00
9672;BME280;4874;43.568;27.824;2022-12-07T12:39:18;98859.91;;;11.91;100.00
9672;BME280;4874;43.568;27.824;2022-12-07T12:54:22;98862.03;;;11.87;100.00
9672;BME280;4874;43.568;27.824;2022-12-07T12:57:45;98871.53;;;11.90;100.00
9672;BME280;4874;43.568;27.824;2022-12-07T13:00:17;98866.09;;;11.73;100.00
9672;BME280;4874;43.568;27.824;2022-12-07T13:15:40;98866.19;;;11.90;100.00
9672;BME280;4874;43.568;27.824;2022-12-07T13:23:52;98856.63;;;11.97;100.00
9672;BME280;4874;43.568;27.824;2022-12-07T13:29:16;98849.78;;;11.68;100.00
9672;BME280;4874;43.568;27.824;2022-12-07T13:31:51;98855.72;;;11.88;100.00
9672;BME280;4874;43.568;27.824;2022-12-07T13:34:36;98849.94;;;11.67;100.00
9672;BME280;4874;43.568;27.824;2022-12-07T13:37:25;98863.59;;;11.72;100.00
9672;BME280;4874;43.568;27.824;2022-12-07T13:39:58;98849.94;;;11.67;100.00
9672;BME280;4874;43.568;27.824;2022-12-07T13:42:33;98829.09;;;11.45;100.00
9672;BME280;4874;43.568;27.824;2022-12-07T13:45:25;98859.47;;;11.60;100.00
9672;BME280;4874;43.568;27.824;2022-12-07T13:48:20;98857.41;;;11.54;100.00
9672;BME280;4874;43.568;27.824;2022-12-07T13:50:56;98852.25;;;11.52;100.00
9672;BME280;4874;43.568;27.824;2022-12-07T13:53:24;98854.22;;;11.50;100.00
9672;BME280;4874;43.568;27.824;2022-12-07T13:55:52;98865.69;;;11.51;100.00
9672;BME280;4874;43.568;27.824;2022-12-07T13:58:21;98865.00;;;11.49;100.00
9672;BME280;4874;43.568;27.824;2022-12-07T14:00:48;98865.84;;;11.32;100.00
9672;BME280;4874;43.568;27.824;2022-12-07T14:05:43;98866.66;;;11.15;100.00
9672;BME280;4874;43.568;27.824;2022-12-07T14:10:55;98869.22;;;10.89;100.00
9672;BME280;4874;43.568;27.824;2022-12-07T14:14:20;98818.56;;;10.73;100.00
9672;BME280;4874;43.568;27.824;2022-12-07T14:16:36;98857.19;;;10.85;100.00
9672;BME280;4874;43.568;27.824;2022-12-07T14:19:06;98856.53;;;10.56;100.00
9672;BME280;4874;43.568;27.824;2022-12-07T14:22:05;98850.88;;;10.68;100.00
9672;BME280;4874;43.568;27.824;2022-12-07T14:24:41;98851.22;;;10.56;100.00
9672;BME280;4874;43.568;27.824;2022-12-07T14:27:20;98849.22;;;10.68;100.00
9672;BME280;4874;43.568;27.824;2022-12-07T14:29:47;98854.25;;;10.34;100.00
9672;BME280;4874;43.568;27.824;2022-12-07T14:32:26;98850.13;;;10.49;100.00
9672;BME280;4874;43.568;27.824;2022-12-07T14:37:27;98856.91;;;10.61;100.00
9672;BME280;4874;43.568;27.824;2022-12-07T14:39:54;98857.03;;;10.42;100.00
9672;BME280;4874;43.568;27.824;2022-12-07T14:42:22;98851.59;;;10.61;100.00
9672;BME280;4874;43.568;27.824;2022-12-07T14:44:50;98812.31;;;10.01;100.00
9672;BME280;4874;43.568;27.824;2022-12-07T14:47:17;98855.72;;;10.46;100.00
9672;BME280;4874;43.568;27.824;2022-12-07T14:50:04;98854.84;;;10.28;100.00
9672;BME280;4874;43.568;27.824;2022-12-07T14:52:31;98858.44;;;10.36;100.00
9672;BME280;4874;43.568;27.824;2022-12-07T14:55:27;98859.94;;;10.39;100.00
9672;BME280;4874;43.568;27.824;2022-12-07T14:57:55;98855.94;;;10.35;100.00
9672;BME280;4874;43.568;27.824;2022-12-07T15:00:24;98860.16;;;10.55;100.00
9672;BME280;4874;43.568;27.824;2022-12-07T15:02:52;98857.50;;;10.55;100.00
9672;BME280;4874;43.568;27.824;2022-12-07T15:05:19;98859.38;;;10.45;100.00
9672;BME280;4874;43.568;27.824;2022-12-07T15:07:47;98852.69;;;10.41;100.00
9672;BME280;4874;43.568;27.824;2022-12-07T15:10:26;98875.91;;;10.66;100.00
9672;BME280;4874;43.568;27.824;2022-12-07T15:12:59;98864.47;;;10.56;100.00
9672;BME280;4874;43.568;27.824;2022-12-07T15:15:47;98870.72;;;10.64;100.00
9672;BME280;4874;43.568;27.824;2022-12-07T15:18:15;98870.72;;;10.64;100.00
9672;BME280;4874;43.568;27.824;2022-12-07T15:20:42;98873.84;;;10.60;100.00
9672;BME280;4874;43.568;27.824;2022-12-07T15:23:11;98878.16;;;10.61;100.00
9672;BME280;4874;43.568;27.824;2022-12-07T15:25:43;98866.19;;;10.47;100.00
9672;BME280;4874;43.568;27.824;2022-12-07T15:28:10;98881.69;;;10.52;100.00
9672;BME280;4874;43.568;27.824;2022-12-07T15:30:37;98877.63;;;10.57;100.00
9672;BME280;4874;43.568;27.824;2022-12-07T15:33:04;98875.69;;;10.50;100.00
9672;BME280;4874;43.568;27.824;2022-12-07T15:35:31;98875.19;;;10.37;100.00
9672;BME280;4874;43.568;27.824;2022-12-07T15:37:57;98882.72;;;10.32;100.00
9672;BME280;4874;43.568;27.824;2022-12-07T15:40:24;98883.31;;;10.26;100.00
9672;BME280;4874;43.568;27.824;2022-12-07T15:42:51;98878.81;;;10.36;100.00